Domov               UVHVVR             MKGP            O straneh              
ZDRAVSTVENO VARSTVO RASTLIN
  MREŽA AGROMET. POSTAJ
 ► PROGNOSTIČNA OBVESTILA
AGROMETEOROLOŠKI PODATKI -
ARSO
OBVLADOVANJE TVEGANJ ZARADI
NEUGODNIH VREMENSKIH RAZMER
  ► NARAVNE NESREČE
  ► SUŠA/MOČA
  ► NAMAKANJE
  ► ŽLED (gozdarstvo)
KARTOGRAFSKI PRIKAZI
SPLETNE POVEZAVE
PROJEKTI IN PUBLIKACIJE

AGROMETEOROLOŠKA MREŽA: VREMENSKE POSTAJE IN FENOLOŠKA OPAZOVANJA

Pregled podatkov za lokacijo Branik, meteorološka postaja 42394

Pregled senzorjev na lokaciji

ID Ime Zadnja
vrednost
Datum
zadnje
spremembe
Tip
senzorja
2188 Temperatura 2 m (°C) 4,91 °C 20.1.2018 11:30 50YA
2189 Relativna vlaga 2 m (% RH) 65,66 % RH 20.1.2018 11:30 50YA
2190 Omočenost lista (U) 0 U 20.1.2018 11:30 A730WET
2191 Hitrost vetra (km/h) 0,11 km/h 20.1.2018 11:30 566.2S-176 (200km/h)
2192 Padavine (mm) 0 mm 20.1.2018 11:30 Rain-O-Matic
2193 Smer vetra (°) 52,75 ° 20.1.2018 11:30 566.2S-130

Pregled podatkov zadnjih 24 ur

Zap.
št.
Datum in čas Branik
Hitrost
vetra
Omočenost
lista
Padavine Relativna
vlaga
2
m
Smer
vetra
Temperatura
2
m
0 20.1.2018 11:30 0,11 0 0 65,66 52,75 4,91
1 20.1.2018 11:00 0,28 0 0 64,26 62,98 4,51
2 20.1.2018 10:30 0,13 0 0 75,75 103,83 2,99
3 20.1.2018 10:00 0,2 2 0 84,52 94,59 1,4
4 20.1.2018 09:30 0,14 4 0 94,92 94,38 0,02
5 20.1.2018 09:00 0,14 3 0 98,01 94,36 -0,68
6 20.1.2018 08:30 0,14 3 0 100 94,36 -1,47
7 20.1.2018 08:00 0,13 2 0 98,48 94,36 -1,8
8 20.1.2018 07:30 0,13 2 0 93,06 94,37 -1,23
9 20.1.2018 07:00 0,12 1 0 87,66 94,35 -0,3
10 20.1.2018 06:30 0,74 0 0 76,32 92,91 1,44
11 20.1.2018 06:00 1,14 0 0 66,34 112,21 3,15
12 20.1.2018 05:30 2,31 0 0 67,05 113,27 3,18
13 20.1.2018 05:00 2,43 0 0 65,74 95,42 3,5
14 20.1.2018 04:30 2,19 1 0 72,25 116,84 2,61
15 20.1.2018 04:00 0,32 2 0 88,14 47,04 0,38
16 20.1.2018 03:30 0,12 1 0 89,03 163,79 0,22
17 20.1.2018 03:00 0,2 0 0 83,47 171,12 1,29
18 20.1.2018 02:30 1,24 0 0 68,11 50,69 3,61
19 20.1.2018 02:00 8,05 0 0 62 80,04 4,81
20 20.1.2018 01:30 9,64 0 0 62,62 137,68 4,89
21 20.1.2018 01:00 10,73 0 0 64,76 101,85 4,79
22 20.1.2018 00:30 9,95 0 0 63,97 83,4 5
23 20.1.2018 00:00 8,94 0 0 62,09 99,08 5,42
24 19.1.2018 23:30 9,77 0 0 61,82 101,98 5,48
25 19.1.2018 23:00 9,46 0 0 62,01 102,63 5,6
26 19.1.2018 22:30 5,63 0 0 63,02 106,2 5,8
27 19.1.2018 22:00 10,68 0 0 63,18 81 6,14
28 19.1.2018 21:30 6,07 0 0 65,3 84,91 6,14
29 19.1.2018 21:00 8,62 0 0 65,77 71,61 6,32
30 19.1.2018 20:30 7,46 0 0 67,58 85,8 6,23
31 19.1.2018 20:00 0,59 0 0 74,06 84,99 5,69
32 19.1.2018 19:30 0,64 0 0 82,06 58,06 5,62
33 19.1.2018 19:00 0,26 1 0 97,45 85,63 5,13
34 19.1.2018 18:30 0,49 0 0 88,64 90,78 5,68
35 19.1.2018 18:00 1,11 1 0 82,88 76,43 6,32
36 19.1.2018 17:30 0,41 4 0 99,01 132,66 6,44
37 19.1.2018 17:00 0,67 3 0 100 110,7 6,42
38 19.1.2018 16:30 0,15 2 0 100 59,55 6,5
39 19.1.2018 16:00 0,13 2 0 100 54,41 6,41
40 19.1.2018 15:30 0,13 2 0 100 54,39 6,59
41 19.1.2018 15:00 0,16 8 0 100 54,39 6,6
42 19.1.2018 14:30 0,18 10 0 100 54,4 6,54
43 19.1.2018 14:00 0,27 10 0,2 100 54,22 6,38
44 19.1.2018 13:30 0,18 10 0,6 100 275,68 6,13
45 19.1.2018 13:00 0,18 10 0 100 275,67 6,03
46 19.1.2018 12:30 0,18 10 0 100 275,67 6
© 2011 Ministrstvo za kmetijstvo, gozdarstvo in prehrano. Vse pravice pridržane.